< < Back
Terminal Aerodrome Forecast


Current Version              Previous Versions:   1  2  3  4  5  6  7  8  9  

Terminal Aerodrome Forecast

615
FTUS42 KJAX 162300
TAFSSI
TAF
KSSI 162320Z 1700/1724 24008KT P6SM SCT020 SCT040
     FM170400 30006KT P6SM SKC=

Latest METAR

541
SAUS70 KWBC 161900 RRX
MTRSSI
METAR KSSI 171853Z AUTO 20004KT 10SM CLR 16/06 A3011 RMK AO2 SLP196
T01610061


USA.gov is the U.S. government's official web portal to all federal, state and local government web resources and services.